createdAt,value
2022-10-21T00:01:33.475Z,95212.91
2022-10-21T00:04:02.122Z,95199.41
2022-10-21T00:06:28.659Z,95199.25
2022-10-21T00:08:55.250Z,95201.72
2022-10-21T00:11:21.894Z,95196.63
2022-10-21T00:13:48.450Z,95200.91
2022-10-21T00:16:17.798Z,95204.78
2022-10-21T00:18:47.078Z,95200.31
2022-10-21T00:21:19.377Z,95195.22
2022-10-21T00:23:46.568Z,95180.72
2022-10-21T00:26:14.670Z,95178.06
2022-10-21T00:28:42.047Z,95178.88
2022-10-21T00:31:13.162Z,95177.03
2022-10-21T00:33:39.882Z,95178.47
2022-10-21T00:36:07.714Z,95187.44
2022-10-21T00:38:35.535Z,95188.47
2022-10-21T00:41:02.479Z,95173.78
2022-10-21T00:43:29.962Z,95179.50
2022-10-21T00:46:01.646Z,95172.53
2022-10-21T00:48:33.884Z,95168.84
2022-10-21T00:51:05.634Z,95159.47
2022-10-21T00:53:34.930Z,95166.22
2022-10-21T00:56:13.999Z,95168.47
2022-10-21T00:58:45.825Z,95176.63
2022-10-21T01:01:13.672Z,95175.41
2022-10-21T01:03:42.887Z,95174.34
2022-10-21T01:06:11.945Z,95182.09
2022-10-21T01:08:39.304Z,95177.63
2022-10-21T01:11:12.729Z,95172.13
2022-10-21T01:14:16.888Z,95166.00
2022-10-21T01:17:20.752Z,95164.59
2022-10-21T01:19:56.201Z,95164.78
2022-10-21T01:23:05.236Z,95168.41
2022-10-21T01:25:43.744Z,95169.84
2022-10-21T01:28:34.540Z,95169.25
2022-10-21T01:31:05.472Z,95171.69
2022-10-21T01:33:40.964Z,95168.81
2022-10-21T01:36:35.933Z,95162.94
2022-10-21T01:39:18.599Z,95159.66
2022-10-21T01:42:15.050Z,95153.56
2022-10-21T01:44:50.935Z,95141.75
2022-10-21T01:47:22.382Z,95142.16
2022-10-21T01:49:59.809Z,95139.31
2022-10-21T01:52:27.022Z,95140.75
2022-10-21T01:54:58.707Z,95135.03
2022-10-21T01:57:31.230Z,95130.13
2022-10-21T01:59:59.967Z,95134.41
2022-10-21T02:02:30.749Z,95139.50
2022-10-21T02:05:01.928Z,95140.31
2022-10-21T02:07:28.865Z,95140.75
2022-10-21T02:09:55.574Z,95131.75
2022-10-21T02:12:25.919Z,95134.41
2022-10-21T02:14:54.510Z,95122.56
2022-10-21T02:17:22.311Z,95125.41
2022-10-21T02:19:48.914Z,95127.28
2022-10-21T02:22:22.217Z,95131.34
2022-10-21T02:24:51.958Z,95115.63
2022-10-21T02:27:19.305Z,95119.94
2022-10-21T02:29:48.477Z,95114.63
2022-10-21T02:32:26.885Z,95119.31
2022-10-21T02:35:29.053Z,95114.97
2022-10-21T02:38:04.045Z,95110.56
2022-10-21T02:40:38.084Z,95110.94
2022-10-21T02:43:30.485Z,95106.47
2022-10-21T02:46:05.972Z,95102.78
2022-10-21T02:48:34.098Z,95095.22
2022-10-21T02:51:03.258Z,95088.47
2022-10-21T02:53:29.761Z,95077.91
2022-10-21T02:55:56.266Z,95070.16
2022-10-21T02:58:22.889Z,95066.25
2022-10-21T03:00:49.442Z,95051.38
2022-10-21T03:03:16.050Z,95057.28
2022-10-21T03:05:43.126Z,95063.81
2022-10-21T03:08:09.967Z,95060.19
2022-10-21T03:10:36.539Z,95074.44
2022-10-21T03:13:03.199Z,95068.94
2022-10-21T03:15:29.937Z,95074.03
2022-10-21T03:17:56.493Z,95079.34
2022-10-21T03:20:23.014Z,95083.00
2022-10-21T03:22:49.670Z,95089.31
2022-10-21T03:25:16.223Z,95088.50
2022-10-21T03:27:42.763Z,95080.94
2022-10-21T03:30:09.898Z,95082.22
2022-10-21T03:32:36.716Z,95080.34
2022-10-21T03:35:03.761Z,95077.94
2022-10-21T03:37:30.360Z,95081.19
2022-10-21T03:39:57.002Z,95078.69
2022-10-21T03:42:23.584Z,95077.69
2022-10-21T03:44:50.084Z,95072.38
2022-10-21T03:47:16.619Z,95071.59
2022-10-21T03:49:44.111Z,95067.91
2022-10-21T03:52:10.654Z,95059.53
2022-10-21T03:54:37.173Z,95053.78
2022-10-21T03:57:03.708Z,95048.50
2022-10-21T03:59:30.233Z,95045.22
2022-10-21T04:01:56.816Z,95028.72
2022-10-21T04:04:23.370Z,95026.47
2022-10-21T04:06:50.025Z,95017.88
2022-10-21T04:09:16.637Z,95011.97
2022-10-21T04:11:43.256Z,95008.31
2022-10-21T04:14:12.964Z,95010.75
2022-10-21T04:16:41.899Z,95011.56
2022-10-21T04:19:09.017Z,95005.66
2022-10-21T04:21:35.737Z,94997.31
2022-10-21T04:24:02.402Z,94997.53
2022-10-21T04:26:28.911Z,94982.22
2022-10-21T04:28:55.481Z,94996.50
2022-10-21T04:31:21.987Z,94996.91
2022-10-21T04:33:48.615Z,94995.69
2022-10-21T04:36:15.101Z,94989.75
2022-10-21T04:38:41.614Z,94989.56
2022-10-21T04:41:08.144Z,94981.63
2022-10-21T04:43:36.321Z,94970.19
2022-10-21T04:46:02.972Z,94957.13
2022-10-21T04:48:29.752Z,94950.41
2022-10-21T04:50:56.345Z,94946.50
2022-10-21T04:53:23.193Z,94946.50
2022-10-21T04:55:53.730Z,94952.44
2022-10-21T04:58:22.346Z,94941.44
2022-10-21T05:00:50.728Z,94943.66
2022-10-21T05:03:18.498Z,94944.50
2022-10-21T05:05:45.390Z,94938.59
2022-10-21T05:08:11.974Z,94941.84
2022-10-21T05:10:38.550Z,94938.81
2022-10-21T05:13:06.040Z,94936.56
2022-10-21T05:15:33.737Z,94924.97
2022-10-21T05:18:00.603Z,94916.19
2022-10-21T05:20:27.162Z,94909.00
2022-10-21T05:22:53.720Z,94900.88
2022-10-21T05:25:20.712Z,94913.94
2022-10-21T05:27:47.286Z,94913.25
2022-10-21T05:30:14.487Z,94919.63
2022-10-21T05:32:41.672Z,94915.38
2022-10-21T05:35:08.565Z,94908.19
2022-10-21T05:37:35.152Z,94915.56
2022-10-21T05:40:02.178Z,94912.72
2022-10-21T05:42:28.715Z,94909.66
2022-10-21T05:44:55.250Z,94908.41
2022-10-21T05:47:23.723Z,94904.31
2022-10-21T05:49:50.665Z,94917.16
2022-10-21T05:52:17.215Z,94923.50
2022-10-21T05:54:43.748Z,94913.25
2022-10-21T05:57:10.264Z,94910.00
2022-10-21T05:59:36.763Z,94903.06
2022-10-21T06:02:03.290Z,94903.06
2022-10-21T06:04:29.861Z,94913.91
2022-10-21T06:09:27.970Z,94922.69
2022-10-21T06:11:54.462Z,94905.34
2022-10-21T06:14:21.022Z,94916.97
2022-10-21T06:16:47.541Z,94910.00
2022-10-21T06:19:14.038Z,94921.06
2022-10-21T06:21:40.572Z,94922.31
2022-10-21T06:24:07.089Z,94927.56
2022-10-21T06:26:36.153Z,94933.69
2022-10-21T06:29:03.606Z,94938.19
2022-10-21T06:31:30.138Z,94934.06
2022-10-21T06:33:56.646Z,94925.03
2022-10-21T06:36:23.181Z,94918.50
2022-10-21T06:38:49.841Z,94919.09
2022-10-21T06:41:17.981Z,94917.19
2022-10-21T06:43:44.760Z,94907.59
2022-10-21T06:46:14.361Z,94906.75
2022-10-21T06:48:41.938Z,94898.34
2022-10-21T06:51:13.274Z,94890.81
2022-10-21T06:53:39.804Z,94886.53
2022-10-21T06:56:09.510Z,94887.94
2022-10-21T06:58:37.467Z,94894.06
2022-10-21T07:01:21.587Z,94895.25
2022-10-21T07:03:59.299Z,94890.56
2022-10-21T07:06:25.980Z,94890.00
2022-10-21T07:08:59.697Z,94882.44
2022-10-21T07:11:27.305Z,94879.13
2022-10-21T07:13:54.611Z,94886.03
2022-10-21T07:16:21.155Z,94888.28
2022-10-21T07:18:47.818Z,94882.59
2022-10-21T07:21:17.474Z,94893.59
2022-10-21T07:23:46.178Z,94884.53
2022-10-21T07:26:13.137Z,94878.84
2022-10-21T07:28:40.296Z,94874.94
2022-10-21T07:31:06.798Z,94868.81
2022-10-21T07:33:34.920Z,94879.63
2022-10-21T07:36:11.035Z,94874.50
2022-10-21T07:38:38.057Z,94872.63
2022-10-21T07:41:04.995Z,94858.09
2022-10-21T07:43:32.186Z,94862.78
2022-10-21T07:46:01.811Z,94856.22
2022-10-21T07:48:31.034Z,94855.94
2022-10-21T07:51:06.609Z,94857.22
2022-10-21T07:53:34.439Z,94858.25
2022-10-21T07:56:06.233Z,94847.34
2022-10-21T07:58:33.190Z,94838.34
2022-10-21T08:01:02.269Z,94855.41
2022-10-21T08:03:29.536Z,94854.13
2022-10-21T08:05:56.480Z,94855.78
2022-10-21T08:08:23.889Z,94853.06
2022-10-21T08:10:52.480Z,94848.75
2022-10-21T08:13:19.266Z,94847.41
2022-10-21T08:15:48.181Z,94848.06
2022-10-21T08:18:15.553Z,94857.97
2022-10-21T08:20:43.890Z,94840.63
2022-10-21T08:23:11.803Z,94841.44
2022-10-21T08:25:38.389Z,94846.44
2022-10-21T08:28:06.485Z,94845.09
2022-10-21T08:30:33.266Z,94847.88
2022-10-21T08:33:00.558Z,94847.69
2022-10-21T08:35:27.695Z,94853.13
2022-10-21T08:37:55.073Z,94845.50
2022-10-21T08:40:21.740Z,94853.47
2022-10-21T08:42:48.782Z,94853.28
2022-10-21T08:45:29.453Z,94848.66
2022-10-21T08:48:01.824Z,94853.13
2022-10-21T08:50:35.607Z,94852.75
2022-10-21T08:53:06.255Z,94849.69
2022-10-21T08:55:40.860Z,94855.03
2022-10-21T08:58:16.187Z,94858.13
2022-10-21T09:00:46.152Z,94866.94
2022-10-21T09:03:16.317Z,94857.56
2022-10-21T09:06:04.271Z,94855.22
2022-10-21T09:08:43.556Z,94864.84
2022-10-21T09:11:12.782Z,94863.84
2022-10-21T09:13:48.232Z,94856.63
2022-10-21T09:16:51.810Z,94862.78
2022-10-21T09:20:09.093Z,94876.19
2022-10-21T09:23:07.499Z,94870.56
2022-10-21T09:25:52.773Z,94880.97
2022-10-21T09:28:19.322Z,94883.31
2022-10-21T09:30:46.726Z,94896.31
2022-10-21T09:33:26.791Z,94902.22
2022-10-21T09:36:13.730Z,94905.38
2022-10-21T09:38:55.378Z,94912.50
2022-10-21T09:41:24.793Z,94921.41
2022-10-21T09:43:51.337Z,94938.53
2022-10-21T09:46:18.870Z,94975.63
2022-10-21T09:49:23.248Z,94999.06
2022-10-21T09:51:40.254Z,95014.38
2022-10-21T09:54:11.813Z,95016.75
2022-10-21T09:56:46.490Z,95011.56
2022-10-21T09:59:16.395Z,95013.22
2022-10-21T10:01:43.768Z,95015.88
2022-10-21T10:04:22.121Z,95024.56
2022-10-21T10:06:49.081Z,95021.84
2022-10-21T10:09:31.683Z,95018.16
2022-10-21T10:12:03.873Z,95031.78
2022-10-21T10:14:36.517Z,95031.16
2022-10-21T10:17:21.332Z,95036.88
2022-10-21T10:20:14.685Z,95050.28
2022-10-21T10:22:43.540Z,95047.50
2022-10-21T10:25:21.418Z,95060.38
2022-10-21T10:27:57.505Z,95063.19
2022-10-21T10:30:26.893Z,95065.56
2022-10-21T10:32:56.206Z,95071.59
2022-10-21T10:35:30.805Z,95070.47
2022-10-21T10:37:59.754Z,95076.16
2022-10-21T10:40:34.162Z,95073.28
2022-10-21T10:43:13.866Z,95067.81
2022-10-21T10:45:51.471Z,95056.31
2022-10-21T10:48:43.514Z,95047.34
2022-10-21T10:51:30.309Z,95036.81
2022-10-21T10:54:15.390Z,95045.13
2022-10-21T10:56:59.337Z,95072.50
2022-10-21T10:59:32.612Z,95072.44
2022-10-21T11:02:12.168Z,95092.28
2022-10-21T11:04:42.107Z,95086.38
2022-10-21T11:07:24.514Z,95087.63
2022-10-21T11:09:54.318Z,95094.88
2022-10-21T11:12:26.461Z,95091.47
2022-10-21T11:14:58.649Z,95113.31
2022-10-21T11:17:41.485Z,95124.13
2022-10-21T11:20:40.377Z,95126.38
2022-10-21T11:23:35.628Z,95130.38
2022-10-21T11:26:24.644Z,95133.75
2022-10-21T11:29:14.344Z,95122.59
2022-10-21T11:32:11.288Z,95109.84
2022-10-21T11:34:38.661Z,95117.16
2022-10-21T11:37:33.253Z,95122.34
2022-10-21T11:40:41.422Z,95124.75
2022-10-21T11:43:32.570Z,95110.69
2022-10-21T11:46:34.369Z,95121.72
2022-10-21T11:49:15.846Z,95118.94
2022-10-21T11:52:03.794Z,95110.50
2022-10-21T11:54:58.996Z,95105.81
2022-10-21T11:57:53.061Z,95112.56
2022-10-21T12:00:23.129Z,95118.91
2022-10-21T12:03:13.457Z,95108.50
2022-10-21T12:05:48.654Z,95110.03
2022-10-21T12:08:23.496Z,95108.66
2022-10-21T12:11:06.220Z,95110.03
2022-10-21T12:13:39.868Z,95107.28
2022-10-21T12:16:08.611Z,95112.00
2022-10-21T12:18:43.102Z,95118.50
2022-10-21T12:21:19.882Z,95108.59
2022-10-21T12:23:50.420Z,95111.13
2022-10-21T12:26:24.484Z,95105.50
2022-10-21T12:29:02.622Z,95108.81
2022-10-21T12:31:46.958Z,95094.88
2022-10-21T12:34:14.238Z,95107.06
2022-10-21T12:36:48.607Z,95110.78
2022-10-21T12:39:49.382Z,95107.06
2022-10-21T12:42:19.663Z,95104.84
2022-10-21T12:44:48.749Z,95108.78
2022-10-21T12:47:30.900Z,95109.47
2022-10-21T12:50:29.866Z,95101.47
2022-10-21T12:53:20.340Z,95107.31
2022-10-21T12:55:58.749Z,95104.75
2022-10-21T12:58:44.672Z,95098.94
2022-10-21T13:01:39.842Z,95103.44
2022-10-21T13:04:32.050Z,95103.16
2022-10-21T13:07:02.967Z,95100.94
2022-10-21T13:09:50.893Z,95102.53
2022-10-21T13:12:23.415Z,95101.16
2022-10-21T13:14:59.004Z,95108.25
2022-10-21T13:17:33.042Z,95094.84
2022-10-21T13:20:14.849Z,95097.66
2022-10-21T13:22:47.152Z,95105.53
2022-10-21T13:25:16.837Z,95109.03
2022-10-21T13:27:48.549Z,95113.31
2022-10-21T13:30:28.787Z,95111.22
2022-10-21T13:33:22.303Z,95112.97
2022-10-21T13:35:53.476Z,95105.59
2022-10-21T13:38:24.431Z,95111.50
2022-10-21T13:41:02.364Z,95113.94
2022-10-21T13:43:53.214Z,95119.59
2022-10-21T13:46:27.049Z,95116.13
2022-10-21T13:48:53.912Z,95124.44
2022-10-21T13:51:26.638Z,95128.88
2022-10-21T13:53:55.978Z,95125.47
2022-10-21T13:56:36.890Z,95122.44
2022-10-21T13:59:05.444Z,95123.03
2022-10-21T14:01:51.127Z,95117.22
2022-10-21T14:04:29.657Z,95119.28
2022-10-21T14:07:08.872Z,95120.78
2022-10-21T14:09:42.230Z,95110.81
2022-10-21T14:12:32.307Z,95099.78
2022-10-21T14:15:12.490Z,95106.84
2022-10-21T14:17:43.889Z,95104.78
2022-10-21T14:20:15.934Z,95098.53
2022-10-21T14:22:48.812Z,95094.19
2022-10-21T14:25:16.609Z,95100.44
2022-10-21T14:27:46.989Z,95094.09
2022-10-21T14:30:25.616Z,95104.66
2022-10-21T14:32:53.201Z,95101.25
2022-10-21T14:35:19.797Z,95096.38
2022-10-21T14:37:58.513Z,95099.41
2022-10-21T14:40:40.768Z,95097.00
2022-10-21T14:43:13.684Z,95095.63
2022-10-21T14:45:52.111Z,95096.03
2022-10-21T14:48:27.637Z,95101.13
2022-10-21T14:51:01.557Z,95095.34
2022-10-21T14:53:33.269Z,95101.13
2022-10-21T14:56:02.821Z,95104.84
2022-10-21T14:58:34.591Z,95093.38
2022-10-21T15:01:13.252Z,95104.16
2022-10-21T15:03:45.724Z,95103.34
2022-10-21T15:06:18.165Z,95107.31
2022-10-21T15:08:57.199Z,95108.56
2022-10-21T15:11:39.765Z,95104.50
2022-10-21T15:14:12.398Z,95099.16
2022-10-21T15:16:47.002Z,95106.38
2022-10-21T15:19:44.978Z,95107.25
2022-10-21T15:22:27.789Z,95105.28
2022-10-21T15:24:59.861Z,95104.16
2022-10-21T15:27:35.116Z,95102.94
2022-10-21T15:30:18.348Z,95114.81
2022-10-21T15:32:45.597Z,95112.56
2022-10-21T15:38:13.134Z,95107.72
2022-10-21T15:40:39.657Z,95103.84
2022-10-21T15:43:06.209Z,95099.34
2022-10-21T15:45:33.300Z,95100.16
2022-10-21T15:47:59.830Z,95097.13
2022-10-21T15:50:27.196Z,95100.63
2022-10-21T15:55:26.233Z,95093.88
2022-10-21T15:57:52.922Z,95108.59
2022-10-21T16:00:22.376Z,95106.22
2022-10-21T16:02:51.784Z,95105.09
2022-10-21T16:05:21.203Z,95116.25
2022-10-21T16:07:47.750Z,95107.22
2022-10-21T16:10:21.591Z,95107.28
2022-10-21T16:12:48.107Z,95097.63
2022-10-21T16:15:15.734Z,95101.72
2022-10-21T16:17:48.047Z,95094.81
2022-10-21T16:20:18.348Z,95101.31
2022-10-21T16:22:45.080Z,95101.16
2022-10-21T16:25:13.937Z,95100.13
2022-10-21T16:27:55.625Z,95095.81
2022-10-21T16:30:25.735Z,95095.41
2022-10-21T16:32:52.595Z,95108.91
2022-10-21T16:35:20.282Z,95112.97
2022-10-21T16:37:48.059Z,95110.53
2022-10-21T16:40:31.680Z,95111.34
2022-10-21T16:42:58.462Z,95113.84
2022-10-21T16:45:29.552Z,95127.59
2022-10-21T16:47:59.512Z,95128.00
2022-10-21T16:50:37.118Z,95129.50
2022-10-21T16:53:04.461Z,95132.94
2022-10-21T16:55:31.023Z,95134.59
2022-10-21T16:57:57.589Z,95128.25
2022-10-21T17:00:24.267Z,95123.63
2022-10-21T17:02:51.465Z,95128.38
2022-10-21T17:05:18.602Z,95123.31
2022-10-21T17:07:45.302Z,95114.97
2022-10-21T17:10:12.051Z,95110.47
2022-10-21T17:12:38.838Z,95108.66
2022-10-21T17:15:05.926Z,95114.41
2022-10-21T17:17:32.489Z,95112.84
2022-10-21T17:19:59.880Z,95111.78
2022-10-21T17:22:26.454Z,95108.91
2022-10-21T17:24:52.981Z,95103.66
2022-10-21T17:27:19.918Z,95097.13
2022-10-21T17:29:46.628Z,95096.88
2022-10-21T17:32:13.569Z,95107.16
2022-10-21T17:34:40.417Z,95104.88
2022-10-21T17:37:11.104Z,95116.22
2022-10-21T17:39:38.228Z,95107.91
2022-10-21T17:42:04.763Z,95100.13
2022-10-21T17:44:31.455Z,95091.28
2022-10-21T17:46:58.072Z,95091.47
2022-10-21T17:49:26.208Z,95103.00
2022-10-21T17:51:52.885Z,95099.09
2022-10-21T17:54:22.794Z,95109.50
2022-10-21T17:56:52.805Z,95106.72
2022-10-21T17:59:19.344Z,95113.91
2022-10-21T18:01:46.193Z,95109.41
2022-10-21T18:04:13.425Z,95104.50
2022-10-21T18:06:40.179Z,95109.22
2022-10-21T18:09:08.427Z,95114.97
2022-10-21T18:11:35.964Z,95104.03
2022-10-21T18:14:03.177Z,95101.38
2022-10-21T18:16:29.867Z,95095.19
2022-10-21T18:19:00.122Z,95089.03
2022-10-21T18:21:29.401Z,95077.00
2022-10-21T18:23:56.468Z,95080.81
2022-10-21T18:26:28.977Z,95094.59
2022-10-21T18:29:00.629Z,95081.28
2022-10-21T18:31:29.888Z,95085.16
2022-10-21T18:33:58.207Z,95085.16
